Time;durP1;ratioP1;P1;durP2;ratioP2;P2;SDS_P1;SDS_P2;PMS_P1;PMS_P2;Temp;Humidity;BMP_temperature;BMP_pressure;BME280_temperature;BME280_humidity;BME280_pressure;Samples;Min_cycle;Max_cycle;Signal;HPM_P1;HPM_P2
2023/06/20 00:01:40;;;;;;;16.05;11.35;;;18.20;99.90;;;;;;5270632;28;20052;-72
2023/06/20 00:04:11;;;;;;;16.35;11.18;;;18.30;99.90;;;;;;5270862;28;20082;-72
2023/06/20 00:06:42;;;;;;;14.93;12.73;;;18.20;99.90;;;;;;5270817;28;20096;-72
2023/06/20 00:09:12;;;;;;;21.77;12.55;;;18.00;99.90;;;;;;5270525;28;20031;-72
2023/06/20 00:11:43;;;;;;;17.13;13.55;;;18.10;99.90;;;;;;5270433;28;20095;-72
2023/06/20 00:14:14;;;;;;;20.67;14.75;;;18.10;99.90;;;;;;5270391;28;20048;-72
2023/06/20 00:16:45;;;;;;;19.13;14.95;;;18.10;99.90;;;;;;5270337;28;20020;-72
2023/06/20 00:19:16;;;;;;;17.38;14.30;;;18.30;99.90;;;;;;5270337;28;20028;-72
2023/06/20 00:21:47;;;;;;;15.80;14.07;;;18.30;99.90;;;;;;5270265;28;20016;-72
2023/06/20 00:24:18;;;;;;;18.38;15.75;;;18.20;99.90;;;;;;5270073;28;20039;-72
2023/06/20 00:26:48;;;;;;;16.90;15.23;;;18.20;99.90;;;;;;5270383;28;20036;-72
2023/06/20 00:29:19;;;;;;;16.30;14.75;;;18.20;99.90;;;;;;5270287;28;20032;-72
2023/06/20 00:31:50;;;;;;;17.50;14.85;;;18.10;99.90;;;;;;5270239;28;20047;-72
2023/06/20 00:34:21;;;;;;;15.93;14.32;;;18.10;99.90;;;;;;5270071;28;20375;-72
2023/06/20 00:36:52;;;;;;;16.90;14.82;;;18.00;99.90;;;;;;5270080;28;20035;-72
2023/06/20 00:39:22;;;;;;;15.95;14.30;;;18.10;99.90;;;;;;5270003;28;20023;-72
2023/06/20 00:41:53;;;;;;;17.90;14.48;;;18.00;99.90;;;;;;5269905;28;20028;-72
2023/06/20 00:44:24;;;;;;;18.63;15.68;;;17.90;99.90;;;;;;5270045;28;20061;-72
2023/06/20 00:46:55;;;;;;;16.15;13.57;;;17.90;99.90;;;;;;5269933;28;20035;-72
2023/06/20 00:49:26;;;;;;;19.55;13.65;;;17.80;99.90;;;;;;5270095;28;20024;-72
2023/06/20 00:51:57;;;;;;;15.77;14.25;;;17.80;99.90;;;;;;5270035;28;20048;-72
2023/06/20 00:54:29;;;;;;;14.85;13.30;;;17.80;99.90;;;;;;5269392;28;20127;-72
2023/06/20 00:57:01;;;;;;;13.70;12.27;;;17.90;99.90;;;;;;5269631;28;20028;-72
2023/06/20 00:59:32;;;;;;;14.07;12.75;;;17.90;99.90;;;;;;5269638;28;20052;-72
2023/06/20 01:02:03;;;;;;;16.67;15.07;;;17.80;99.90;;;;;;5269553;28;20075;-72
2023/06/20 01:04:34;;;;;;;15.27;13.95;;;18.00;99.90;;;;;;5269076;28;20048;-72
2023/06/20 01:07:33;;;;;;;15.48;13.90;;;18.00;99.90;;;;;;5269463;28;20039;-72
2023/06/20 01:10:04;;;;;;;15.77;14.23;;;17.90;99.90;;;;;;5269462;28;20039;-72
2023/06/20 01:12:50;;;;;;;16.88;15.23;;;17.80;99.90;;;;;;5269652;28;20024;-71
2023/06/20 01:15:38;;;;;;;14.57;13.13;;;17.80;99.90;;;;;;5269432;28;20051;-72
2023/06/20 01:18:19;;;;;;;14.80;13.13;;;17.90;99.90;;;;;;5269594;28;20028;-72
2023/06/20 01:20:56;;;;;;;16.33;14.57;;;17.90;99.90;;;;;;5269304;28;20028;-72
2023/06/20 01:23:34;;;;;;;14.70;13.05;;;17.90;99.90;;;;;;5269108;28;20489;-72
2023/06/20 01:26:23;;;;;;;16.00;13.18;;;17.60;99.90;;;;;;5269004;28;20033;-72
2023/06/20 01:29:15;;;;;;;14.67;13.37;;;17.70;99.90;;;;;;5269103;28;20036;-72
2023/06/20 01:31:52;;;;;;;14.02;12.77;;;17.90;99.90;;;;;;5268922;28;20299;-72
2023/06/20 01:34:27;;;;;;;17.25;13.88;;;17.80;99.90;;;;;;5250793;28;20035;-72
2023/06/20 01:37:00;;;;;;;17.95;12.95;;;17.80;99.90;;;;;;5269036;28;20036;-72
2023/06/20 01:39:36;;;;;;;13.82;11.85;;;18.00;99.90;;;;;;5269296;28;20439;-72
2023/06/20 01:42:07;;;;;;;16.50;11.43;;;17.90;99.90;;;;;;5269372;28;20027;-72
2023/06/20 01:44:40;;;;;;;13.25;11.38;;;17.90;99.90;;;;;;5269139;28;20115;-72
2023/06/20 01:47:14;;;;;;;13.68;12.23;;;17.70;99.90;;;;;;5268875;28;20499;-72
2023/06/20 01:49:48;;;;;;;15.20;12.90;;;17.60;99.90;;;;;;5268646;28;20020;-72
2023/06/20 01:52:20;;;;;;;15.02;12.98;;;17.60;99.90;;;;;;5268501;28;20040;-72
2023/06/20 01:54:53;;;;;;;14.80;13.13;;;17.50;99.90;;;;;;5268205;28;20046;-72
2023/06/20 01:57:26;;;;;;;13.52;12.13;;;17.50;99.90;;;;;;5250310;28;20479;-72
2023/06/20 01:59:58;;;;;;;13.25;11.95;;;17.40;99.90;;;;;;5268375;28;20036;-72
2023/06/20 02:02:30;;;;;;;12.88;11.63;;;17.50;99.90;;;;;;5268336;28;20489;-72
2023/06/20 02:05:03;;;;;;;13.25;11.93;;;17.60;99.90;;;;;;5268331;28;20472;-72
2023/06/20 02:07:37;;;;;;;14.27;11.68;;;17.40;99.90;;;;;;5268289;28;20028;-72
2023/06/20 02:10:10;;;;;;;12.38;11.15;;;17.50;99.90;;;;;;5268213;28;20032;-72
2023/06/20 02:12:43;;;;;;;11.73;10.60;;;17.40;99.90;;;;;;5268159;28;20077;-72
2023/06/20 02:15:16;;;;;;;14.88;11.77;;;17.40;99.90;;;;;;5267024;28;20514;-72
2023/06/20 02:17:48;;;;;;;13.40;12.10;;;17.50;99.90;;;;;;5268151;28;20024;-72
2023/06/20 02:20:19;;;;;;;13.80;11.65;;;17.50;99.90;;;;;;5267944;28;20042;-72
2023/06/20 02:22:52;;;;;;;13.45;11.02;;;17.40;99.90;;;;;;5267858;28;20024;-72
2023/06/20 02:25:29;;;;;;;13.18;10.68;;;17.40;99.90;;;;;;5268122;28;20040;-72
2023/06/20 02:28:01;;;;;;;12.38;10.40;;;17.50;99.90;;;;;;5268089;28;20449;-72
2023/06/20 02:30:34;;;;;;;12.80;11.25;;;17.20;99.90;;;;;;5267847;28;20028;-72
2023/06/20 02:33:07;;;;;;;12.65;11.32;;;17.20;99.90;;;;;;5267769;28;20031;-72
2023/06/20 02:35:40;;;;;;;15.93;10.50;;;17.30;99.90;;;;;;5267671;28;20040;-72
2023/06/20 02:38:12;;;;;;;12.73;11.43;;;17.30;99.90;;;;;;5267729;28;20024;-72
2023/06/20 02:40:43;;;;;;;11.88;10.30;;;17.20;99.90;;;;;;5267628;28;20028;-72
2023/06/20 02:43:14;;;;;;;13.35;12.05;;;17.10;99.90;;;;;;5267724;28;20360;-72
2023/06/20 02:45:50;;;;;;;13.85;12.32;;;17.00;99.90;;;;;;5267566;28;20032;-72
2023/06/20 02:48:33;;;;;;;14.38;11.57;;;17.10;99.90;;;;;;5267584;28;20051;-72
2023/06/20 02:51:16;;;;;;;14.07;12.57;;;17.10;99.90;;;;;;5267391;28;20115;-72
2023/06/20 02:54:16;;;;;;;15.80;14.43;;;17.10;99.90;;;;;;5267278;28;20043;-72
2023/06/20 02:56:53;;;;;;;13.73;12.63;;;17.10;99.90;;;;;;5267357;28;20035;-72
2023/06/20 02:59:28;;;;;;;13.68;12.38;;;17.10;99.90;;;;;;5267393;28;20047;-72
2023/06/20 03:02:03;;;;;;;12.95;11.75;;;17.20;99.90;;;;;;5267339;28;20024;-72
2023/06/20 03:04:34;;;;;;;13.45;12.15;;;17.20;99.90;;;;;;5267320;28;20079;-72
2023/06/20 03:07:07;;;;;;;12.48;11.27;;;17.00;99.90;;;;;;5267182;28;20040;-72
2023/06/20 03:09:40;;;;;;;12.23;11.10;;;17.20;99.90;;;;;;5267421;28;20020;-72
2023/06/20 03:12:11;;;;;;;14.15;11.23;;;17.10;99.90;;;;;;5267662;28;20035;-72
2023/06/20 03:14:42;;;;;;;12.65;11.25;;;17.10;99.90;;;;;;5267449;28;20043;-72
2023/06/20 03:17:14;;;;;;;12.50;11.27;;;17.10;99.90;;;;;;5267284;28;20024;-72
2023/06/20 03:19:44;;;;;;;13.32;11.98;;;17.30;99.90;;;;;;5267231;28;20032;-71
2023/06/20 03:22:15;;;;;;;12.32;11.23;;;17.30;99.90;;;;;;5267070;28;20084;-72
2023/06/20 03:24:47;;;;;;;12.18;10.80;;;17.40;99.90;;;;;;5267084;28;20036;-72
2023/06/20 03:27:18;;;;;;;13.00;10.98;;;17.60;99.90;;;;;;5269804;28;20048;-72
2023/06/20 03:29:49;;;;;;;12.18;11.07;;;17.70;99.90;;;;;;5271524;28;20063;-72
2023/06/20 03:32:20;;;;;;;12.75;11.65;;;17.70;99.90;;;;;;5271267;28;20043;-72
2023/06/20 03:34:50;;;;;;;12.88;11.57;;;17.80;99.90;;;;;;5271153;28;20395;-72
2023/06/20 03:37:21;;;;;;;12.20;10.77;;;17.80;99.90;;;;;;5271276;28;20017;-72
2023/06/20 03:39:52;;;;;;;13.10;11.40;;;18.00;99.90;;;;;;5271475;28;20032;-72
2023/06/20 03:42:23;;;;;;;12.15;10.68;;;18.00;99.90;;;;;;5271261;28;20023;-72
2023/06/20 03:44:54;;;;;;;12.73;11.52;;;18.00;99.90;;;;;;5271297;28;20032;-72
2023/06/20 03:47:25;;;;;;;12.35;11.00;;;18.00;99.90;;;;;;5252850;28;20035;-72
2023/06/20 03:49:55;;;;;;;11.80;9.85;;;18.00;99.90;;;;;;5270923;28;20092;-72
2023/06/20 03:52:26;;;;;;;12.57;11.38;;;18.10;99.90;;;;;;5270824;28;20024;-72
2023/06/20 03:54:57;;;;;;;13.00;10.70;;;18.10;99.90;;;;;;5270751;28;20399;-72
2023/06/20 03:57:28;;;;;;;12.80;11.57;;;18.50;99.90;;;;;;5270880;28;20024;-72
2023/06/20 03:59:59;;;;;;;12.98;11.80;;;18.50;99.90;;;;;;5270878;28;20024;-72
2023/06/20 04:02:30;;;;;;;17.20;11.40;;;18.40;99.90;;;;;;5270778;28;20016;-73
2023/06/20 04:05:01;;;;;;;13.70;12.18;;;18.50;99.90;;;;;;5270567;28;20056;-72
2023/06/20 04:07:31;;;;;;;13.35;10.95;;;18.60;99.90;;;;;;5270723;28;20024;-72
2023/06/20 04:10:03;;;;;;;12.35;11.13;;;18.60;99.90;;;;;;5270817;28;20391;-72
2023/06/20 04:12:34;;;;;;;13.80;11.68;;;18.70;99.90;;;;;;5270669;28;20027;-72
2023/06/20 04:15:05;;;;;;;13.30;12.00;;;18.50;99.90;;;;;;5270407;28;20055;-72
2023/06/20 04:17:40;;;;;;;13.00;11.80;;;18.50;99.90;;;;;;5270905;28;20028;-72
2023/06/20 04:20:12;;;;;;;13.73;11.73;;;18.80;99.90;;;;;;5270932;28;20020;-72
2023/06/20 04:22:46;;;;;;;12.75;11.32;;;18.80;99.90;;;;;;5270367;28;20016;-72
2023/06/20 04:25:18;;;;;;;12.30;11.10;;;18.70;99.90;;;;;;5270309;28;20080;-72
2023/06/20 04:27:55;;;;;;;13.75;11.63;;;18.80;99.90;;;;;;5270246;28;20024;-72
2023/06/20 04:30:26;;;;;;;12.43;10.55;;;18.70;99.90;;;;;;5270145;28;20051;-72
2023/06/20 04:32:57;;;;;;;12.30;11.10;;;19.00;99.90;;;;;;5270226;28;20376;-72
2023/06/20 04:35:29;;;;;;;12.35;11.10;;;19.10;99.90;;;;;;5269931;28;20032;-72
2023/06/20 04:38:03;;;;;;;12.70;11.52;;;19.10;99.90;;;;;;5269074;28;20024;-72
2023/06/20 04:40:34;;;;;;;13.18;11.93;;;19.20;99.90;;;;;;5269782;28;20059;-73
2023/06/20 04:43:04;;;;;;;13.75;12.35;;;19.40;99.90;;;;;;5269934;28;20079;-72
2023/06/20 04:45:38;;;;;;;13.18;11.98;;;19.50;99.90;;;;;;5269869;28;20441;-72
2023/06/20 04:48:09;;;;;;;11.80;10.55;;;19.60;99.90;;;;;;5269810;28;20081;-72
2023/06/20 04:50:41;;;;;;;12.50;11.30;;;19.50;99.90;;;;;;5269762;28;20032;-72
2023/06/20 04:53:12;;;;;;;15.20;12.15;;;19.70;99.90;;;;;;5269777;28;20119;-72
2023/06/20 04:55:43;;;;;;;14.05;12.55;;;19.90;99.90;;;;;;5269636;28;20126;-72
2023/06/20 04:58:14;;;;;;;14.45;13.13;;;19.90;99.90;;;;;;5269649;28;20376;-72
2023/06/20 05:00:44;;;;;;;15.75;13.20;;;20.00;99.90;;;;;;5269546;28;20074;-72
2023/06/20 05:03:19;;;;;;;13.88;12.70;;;20.20;99.90;;;;;;5269319;28;20475;-72
2023/06/20 05:05:50;;;;;;;16.30;14.73;;;20.40;99.90;;;;;;5269717;28;20080;-73
2023/06/20 05:08:21;;;;;;;17.02;15.50;;;20.50;99.90;;;;;;5269509;28;20046;-73
2023/06/20 05:10:52;;;;;;;15.82;14.32;;;20.60;99.90;;;;;;5269379;28;20036;-72
2023/06/20 05:13:23;;;;;;;14.55;13.25;;;20.80;99.90;;;;;;5269378;28;20059;-72
2023/06/20 05:15:54;;;;;;;13.77;12.60;;;20.80;99.90;;;;;;5269241;28;20040;-72
2023/06/20 05:18:25;;;;;;;12.35;11.13;;;21.00;99.90;;;;;;5269388;28;20020;-72
2023/06/20 05:20:55;;;;;;;12.93;11.65;;;21.20;99.90;;;;;;5269228;28;20028;-72
2023/06/20 05:23:26;;;;;;;12.55;11.45;;;21.10;99.90;;;;;;5269194;28;20024;-72
2023/06/20 05:25:58;;;;;;;11.93;10.82;;;21.30;99.90;;;;;;5269378;28;20109;-72
2023/06/20 05:28:28;;;;;;;13.55;11.15;;;21.40;99.90;;;;;;5269097;28;20028;-72
2023/06/20 05:30:59;;;;;;;11.82;10.73;;;21.50;99.90;;;;;;5268958;28;20035;-72
2023/06/20 05:33:30;;;;;;;12.35;10.90;;;21.60;99.90;;;;;;5268987;28;20565;-72
2023/06/20 05:36:01;;;;;;;12.82;11.73;;;21.90;99.90;;;;;;5268752;28;20044;-72
2023/06/20 05:38:33;;;;;;;16.90;15.65;;;22.10;99.90;;;;;;5268810;28;20020;-72
2023/06/20 05:41:03;;;;;;;12.15;11.25;;;22.40;99.90;;;;;;5268596;28;20044;-72
2023/06/20 05:43:34;;;;;;;9.95;9.10;;;22.50;99.90;;;;;;5268657;28;20559;-72
2023/06/20 05:46:05;;;;;;;9.32;8.32;;;22.50;99.90;;;;;;5268549;28;20028;-72
2023/06/20 05:48:36;;;;;;;7.95;7.15;;;22.60;99.90;;;;;;5268621;28;20032;-72
2023/06/20 05:51:12;;;;;;;9.18;7.07;;;22.70;99.90;;;;;;5268429;28;20757;-72
2023/06/20 05:53:43;;;;;;;12.65;6.22;;;22.90;99.90;;;;;;5268471;28;20020;-72
2023/06/20 05:56:14;;;;;;;6.75;6.22;;;23.10;99.90;;;;;;5268430;28;20393;-72
2023/06/20 05:58:45;;;;;;;8.63;6.32;;;23.30;99.90;;;;;;5268626;28;20024;-73
2023/06/20 06:01:16;;;;;;;8.27;6.45;;;23.40;99.90;;;;;;5268371;28;20039;-72
2023/06/20 06:03:47;;;;;;;8.40;6.90;;;23.50;99.90;;;;;;5268426;28;20436;-72
2023/06/20 06:06:18;;;;;;;7.20;6.60;;;23.60;99.90;;;;;;5268421;28;20070;-72
2023/06/20 06:08:50;;;;;;;8.50;7.68;;;23.60;99.90;;;;;;5268309;28;20013;-73
2023/06/20 06:11:21;;;;;;;8.73;8.05;;;23.80;99.90;;;;;;5250074;28;20738;-72
2023/06/20 06:13:52;;;;;;;9.90;8.95;;;23.80;99.90;;;;;;5268035;28;20025;-72
2023/06/20 06:16:23;;;;;;;9.82;9.13;;;24.00;99.90;;;;;;5268050;28;20034;-73
2023/06/20 06:18:54;;;;;;;13.32;12.40;;;24.00;99.90;;;;;;5268185;28;20028;-72
2023/06/20 06:21:25;;;;;;;13.68;12.27;;;24.00;99.90;;;;;;5267985;28;20024;-71
2023/06/20 06:23:56;;;;;;;16.05;14.50;;;24.10;99.90;;;;;;5267943;28;20024;-72
2023/06/20 06:26:27;;;;;;;8.80;8.10;;;24.30;99.90;;;;;;5267928;28;20040;-72
2023/06/20 06:28:59;;;;;;;8.25;5.78;;;24.30;99.90;;;;;;5267927;28;20036;-72
2023/06/20 06:31:33;;;;;;;5.80;5.13;;;24.40;99.90;;;;;;5267995;28;20479;-72
2023/06/20 06:34:04;;;;;;;7.00;5.70;;;24.40;99.90;;;;;;5268286;28;20032;-72
2023/06/20 06:36:35;;;;;;;5.88;5.28;;;24.50;99.90;;;;;;5268059;28;20027;-73
2023/06/20 06:39:07;;;;;;;5.72;5.32;;;24.60;99.90;;;;;;5267697;28;20107;-72
2023/06/20 06:41:39;;;;;;;6.03;5.43;;;24.60;99.90;;;;;;5267682;28;20036;-72
2023/06/20 06:44:10;;;;;;;6.05;5.53;;;24.70;99.90;;;;;;5267659;28;20016;-73
2023/06/20 06:46:41;;;;;;;5.90;5.45;;;24.80;99.90;;;;;;5267572;28;20028;-73
2023/06/20 06:49:12;;;;;;;7.25;6.55;;;24.80;99.90;;;;;;5267600;28;20099;-72
2023/06/20 06:51:43;;;;;;;6.65;5.95;;;24.80;99.90;;;;;;5267271;28;20024;-72
2023/06/20 06:54:14;;;;;;;6.70;5.95;;;25.00;99.90;;;;;;5267193;28;20069;-73
2023/06/20 06:56:45;;;;;;;5.75;5.32;;;25.00;99.90;;;;;;5267422;28;20068;-73
2023/06/20 06:59:16;;;;;;;7.57;6.88;;;25.20;99.90;;;;;;5267406;28;20024;-72
2023/06/20 07:01:47;;;;;;;8.50;7.82;;;25.10;99.90;;;;;;5266885;28;20467;-72
2023/06/20 07:04:17;;;;;;;9.82;8.90;;;25.20;99.90;;;;;;5267217;28;20056;-72
2023/06/20 07:06:48;;;;;;;9.18;8.43;;;25.30;99.90;;;;;;5267337;28;20024;-72
2023/06/20 07:09:19;;;;;;;9.15;8.45;;;25.30;99.90;;;;;;5249188;28;20043;-72
2023/06/20 07:11:50;;;;;;;8.13;7.50;;;25.40;99.90;;;;;;5267367;28;20107;-72
2023/06/20 07:14:21;;;;;;;7.13;6.63;;;25.50;99.90;;;;;;5267340;28;20028;-72
2023/06/20 07:16:52;;;;;;;6.10;5.70;;;25.60;99.90;;;;;;5267532;28;20028;-72
2023/06/20 07:19:23;;;;;;;5.78;5.28;;;25.60;99.90;;;;;;5267280;28;20028;-72
2023/06/20 07:21:54;;;;;;;6.00;5.60;;;25.70;99.90;;;;;;5267121;28;20031;-72
2023/06/20 07:24:25;;;;;;;6.57;5.25;;;25.90;99.90;;;;;;5267134;28;20032;-72
2023/06/20 07:26:55;;;;;;;5.40;4.90;;;25.80;99.90;;;;;;5267117;28;20028;-72
2023/06/20 07:29:26;;;;;;;6.22;4.78;;;25.80;99.90;;;;;;5267147;28;20119;-72
2023/06/20 07:31:57;;;;;;;5.32;4.93;;;25.90;99.90;;;;;;5267225;28;20083;-72
2023/06/20 07:34:28;;;;;;;5.97;5.10;;;26.00;99.90;;;;;;5267143;28;20032;-73
2023/06/20 07:47:23;;;;;;;7.15;5.22;;;26.10;99.90;;;;;;5266929;28;20146;-73
2023/06/20 07:49:54;;;;;;;6.07;4.22;;;26.30;99.90;;;;;;5267086;28;20106;-72
2023/06/20 07:52:27;;;;;;;9.95;4.88;;;26.40;99.90;;;;;;5266944;28;20112;-72
2023/06/20 07:54:57;;;;;;;9.65;5.35;;;26.30;99.90;;;;;;5266790;28;20589;-73
2023/06/20 07:57:28;;;;;;;6.55;5.07;;;26.50;99.90;;;;;;5266825;28;20066;-72
2023/06/20 07:59:59;;;;;;;7.70;5.45;;;26.50;99.90;;;;;;5266935;28;20020;-72
2023/06/20 08:02:31;;;;;;;6.75;5.60;;;26.60;99.90;;;;;;5266878;28;20021;-72
2023/06/20 08:05:04;;;;;;;6.95;6.25;;;26.70;99.90;;;;;;5266671;28;20045;-72
2023/06/20 08:07:35;;;;;;;6.43;5.75;;;26.60;99.90;;;;;;5266817;28;20383;-73
2023/06/20 08:10:07;;;;;;;6.95;6.03;;;26.80;99.90;;;;;;5266663;28;20020;-72
2023/06/20 08:12:38;;;;;;;8.18;7.22;;;26.80;99.90;;;;;;5266671;28;20119;-72
2023/06/20 08:15:10;;;;;;;13.48;6.70;;;26.90;99.90;;;;;;5269935;28;20036;-72
2023/06/20 08:17:40;;;;;;;8.68;6.70;;;26.90;99.90;;;;;;5270465;28;20027;-72
2023/06/20 08:20:11;;;;;;;7.35;6.68;;;27.00;99.90;;;;;;5270217;28;20503;-72
2023/06/20 08:22:42;;;;;;;7.03;6.53;;;27.00;99.90;;;;;;5270383;28;20030;-73
2023/06/20 08:25:13;;;;;;;7.43;6.82;;;27.10;99.90;;;;;;5270137;28;20046;-72
2023/06/20 08:27:44;;;;;;;7.47;6.78;;;27.10;99.90;;;;;;5270389;28;20024;-72
2023/06/20 08:30:15;;;;;;;8.70;6.47;;;27.20;99.90;;;;;;5270264;28;20012;-72
2023/06/20 08:32:47;;;;;;;7.70;7.00;;;27.30;99.90;;;;;;5270102;28;20028;-72
2023/06/20 08:35:18;;;;;;;11.55;8.23;;;27.30;99.90;;;;;;5270053;28;20399;-73
2023/06/20 08:37:49;;;;;;;40.97;9.30;;;27.10;99.90;;;;;;5270074;28;20028;-73
2023/06/20 08:40:20;;;;;;;9.15;8.00;;;27.30;99.90;;;;;;5270068;28;20024;-73
2023/06/20 08:42:54;;;;;;;10.02;9.27;;;27.40;99.90;;;;;;5270253;28;20016;-72
2023/06/20 08:45:27;;;;;;;9.73;8.77;;;27.40;99.90;;;;;;5270448;28;20113;-73
2023/06/20 08:48:01;;;;;;;10.02;9.05;;;27.00;99.90;;;;;;5269835;28;20024;-73
2023/06/20 08:50:32;;;;;;;9.90;8.90;;;27.30;99.90;;;;;;5269776;28;20024;-73
2023/06/20 08:53:06;;;;;;;10.65;9.65;;;27.20;99.90;;;;;;5269712;28;20056;-73
2023/06/20 08:55:39;;;;;;;12.63;10.70;;;27.10;99.90;;;;;;5269983;28;20036;-72
2023/06/20 08:58:11;;;;;;;9.23;8.40;;;27.30;99.90;;;;;;5269656;28;20030;-72
2023/06/20 09:00:44;;;;;;;10.43;9.48;;;27.40;99.90;;;;;;5269483;28;20020;-73
2023/06/20 09:03:15;;;;;;;9.52;8.68;;;27.30;99.90;;;;;;5269429;28;20027;-72
2023/06/20 09:05:46;;;;;;;9.43;8.80;;;27.20;99.90;;;;;;5251311;28;20376;-73
2023/06/20 09:08:17;;;;;;;9.52;8.75;;;27.50;99.90;;;;;;5269555;28;20371;-73
2023/06/20 09:10:48;;;;;;;8.35;7.55;;;27.40;99.90;;;;;;5269339;28;20032;-73
2023/06/20 09:13:25;;;;;;;8.55;7.72;;;27.60;99.90;;;;;;5269506;28;20503;-72
2023/06/20 09:16:11;;;;;;;9.05;8.32;;;27.10;99.90;;;;;;5269154;28;20093;-73
2023/06/20 09:18:42;;;;;;;7.95;7.25;;;27.40;99.90;;;;;;5269293;28;20028;-73
2023/06/20 09:21:16;;;;;;;6.85;6.03;;;27.60;99.90;;;;;;5269212;28;20020;-72
2023/06/20 09:23:47;;;;;;;7.45;6.70;;;27.20;99.90;;;;;;5268814;28;20080;-73
2023/06/20 09:26:18;;;;;;;6.65;6.13;;;27.80;99.90;;;;;;5268773;28;20352;-72
2023/06/20 09:28:49;;;;;;;8.32;5.53;;;27.90;99.90;;;;;;5269050;28;20375;-72
2023/06/20 09:31:20;;;;;;;6.35;5.80;;;28.00;99.90;;;;;;5268941;28;20024;-72
2023/06/20 09:33:51;;;;;;;6.22;5.25;;;28.10;99.90;;;;;;5268845;28;20454;-73
2023/06/20 09:36:22;;;;;;;5.78;4.35;;;28.30;99.90;;;;;;5268962;28;20032;-72
2023/06/20 09:38:55;;;;;;;7.18;4.63;;;28.30;99.90;;;;;;5268703;28;20028;-73
2023/06/20 09:41:26;;;;;;;7.03;4.68;;;28.30;99.90;;;;;;5268875;28;20089;-72
2023/06/20 09:43:57;;;;;;;5.85;4.63;;;28.10;99.90;;;;;;5268791;28;20028;-72
2023/06/20 09:46:28;;;;;;;5.03;4.53;;;28.00;99.90;;;;;;5268620;28;20032;-73
2023/06/20 09:48:59;;;;;;;5.00;4.50;;;28.20;99.90;;;;;;5268789;28;20020;-72
2023/06/20 09:51:33;;;;;;;9.52;5.15;;;28.10;99.90;;;;;;5268958;28;20455;-72
2023/06/20 09:54:06;;;;;;;6.25;5.20;;;28.40;99.90;;;;;;5268442;28;20053;-72
2023/06/20 09:56:46;;;;;;;5.53;5.07;;;28.20;99.90;;;;;;5268613;28;20475;-73
2023/06/20 09:59:17;;;;;;;6.15;5.45;;;28.40;99.90;;;;;;5268831;28;20035;-72
2023/06/20 10:01:50;;;;;;;5.45;4.53;;;28.50;99.90;;;;;;5268480;28;20032;-73
2023/06/20 10:04:22;;;;;;;5.43;4.93;;;28.40;99.90;;;;;;5268265;28;20044;-72
2023/06/20 10:06:55;;;;;;;4.97;4.57;;;28.50;99.90;;;;;;5268536;28;20487;-73
2023/06/20 10:09:27;;;;;;;5.57;5.10;;;28.70;99.90;;;;;;5268332;28;20409;-72
2023/06/20 10:11:58;;;;;;;7.78;4.60;;;28.60;99.90;;;;;;5268229;28;20020;-73
2023/06/20 10:14:29;;;;;;;5.15;4.47;;;28.60;99.90;;;;;;5268101;28;20036;-73
2023/06/20 10:17:08;;;;;;;5.75;4.38;;;28.70;99.90;;;;;;5268019;28;20055;-72
2023/06/20 10:19:50;;;;;;;5.70;4.10;;;28.70;99.90;;;;;;5268153;28;20368;-72
2023/06/20 10:22:34;;;;;;;5.32;4.57;;;28.80;99.90;;;;;;5268001;28;20052;-72
2023/06/20 10:25:12;;;;;;;4.78;4.38;;;28.70;99.90;;;;;;5267826;28;20115;-72
2023/06/20 10:28:01;;;;;;;5.90;5.40;;;28.80;99.90;;;;;;5267785;28;20028;-72
2023/06/20 10:30:53;;;;;;;5.63;5.13;;;28.90;99.90;;;;;;5267960;28;20112;-72
2023/06/20 10:33:30;;;;;;;6.68;4.97;;;28.90;99.90;;;;;;5267881;28;20452;-72
2023/06/20 10:36:12;;;;;;;5.63;5.13;;;28.90;99.90;;;;;;5266810;28;20036;-73
2023/06/20 10:38:51;;;;;;;7.72;5.03;;;29.00;99.90;;;;;;5267527;28;20081;-72
2023/06/20 10:41:24;;;;;;;5.25;4.85;;;29.00;99.90;;;;;;5267650;28;20043;-72
2023/06/20 10:44:03;;;;;;;6.00;5.50;;;28.90;99.90;;;;;;5267722;28;20020;-72
2023/06/20 10:46:37;;;;;;;7.25;6.65;;;28.90;99.90;;;;;;5267803;28;20106;-72
2023/06/20 10:49:10;;;;;;;8.45;7.85;;;28.90;99.90;;;;;;5267687;28;20379;-73
2023/06/20 10:51:49;;;;;;;7.65;7.15;;;28.90;99.90;;;;;;5249425;28;20027;-72
2023/06/20 10:54:21;;;;;;;8.00;7.40;;;29.20;99.90;;;;;;5268121;28;20085;-72
2023/06/20 10:56:52;;;;;;;8.55;7.93;;;29.30;99.90;;;;;;5267734;28;20119;-72
2023/06/20 10:59:22;;;;;;;9.48;7.68;;;28.70;99.90;;;;;;5267438;28;20099;-73
2023/06/20 11:01:54;;;;;;;8.88;8.27;;;29.00;99.90;;;;;;5267369;28;20039;-73
2023/06/20 11:04:27;;;;;;;8.48;7.88;;;28.50;99.90;;;;;;5267137;28;20039;-73
2023/06/20 11:07:06;;;;;;;8.45;7.65;;;29.00;99.90;;;;;;5267294;28;20576;-73
2023/06/20 11:09:39;;;;;;;8.35;6.63;;;29.20;99.90;;;;;;5267247;28;20035;-72
2023/06/20 11:12:10;;;;;;;7.70;6.55;;;29.30;99.90;;;;;;5267267;28;20020;-72
2023/06/20 11:14:41;;;;;;;6.70;6.05;;;29.10;99.90;;;;;;5267112;28;20028;-72
2023/06/20 11:17:12;;;;;;;6.55;5.93;;;29.20;99.90;;;;;;5267265;28;20067;-72
2023/06/20 11:19:43;;;;;;;6.22;5.72;;;29.00;99.90;;;;;;5267204;28;20020;-73
2023/06/20 11:22:13;;;;;;;8.32;5.85;;;29.50;99.90;;;;;;5267153;28;20467;-72
2023/06/20 11:24:44;;;;;;;6.00;5.60;;;29.60;99.90;;;;;;5267003;28;20105;-73
2023/06/20 11:27:16;;;;;;;6.57;5.97;;;29.60;99.90;;;;;;5267173;28;20028;-72
2023/06/20 11:29:47;;;;;;;7.72;5.90;;;29.50;99.90;;;;;;5267162;28;20455;-73
2023/06/20 11:32:18;;;;;;;6.70;6.07;;;29.80;99.90;;;;;;5249051;28;20025;-72
2023/06/20 11:34:59;;;;;;;6.00;5.50;;;29.80;99.90;;;;;;5266928;28;20627;-73
2023/06/20 11:37:30;;;;;;;6.35;5.95;;;29.50;99.90;;;;;;5267049;28;20066;-73
2023/06/20 11:40:03;;;;;;;5.82;5.43;;;29.20;99.90;;;;;;5267027;28;20032;-72
2023/06/20 11:42:34;;;;;;;6.55;5.47;;;28.80;99.90;;;;;;5267018;28;20103;-73
2023/06/20 11:45:12;;;;;;;7.10;6.43;;;28.80;99.90;;;;;;5266996;28;20078;-72
2023/06/20 11:47:43;;;;;;;7.18;6.68;;;29.00;99.90;;;;;;5268267;28;20475;-73
2023/06/20 11:50:23;;;;;;;8.00;6.82;;;29.00;99.90;;;;;;5270945;28;20026;-72
2023/06/20 11:52:58;;;;;;;7.93;7.07;;;28.80;99.90;;;;;;5271100;28;20028;-73
2023/06/20 11:55:44;;;;;;;8.82;8.02;;;28.80;99.90;;;;;;5270832;28;20517;-73
2023/06/20 11:58:16;;;;;;;7.22;6.60;;;28.30;99.90;;;;;;5270850;28;20117;-73
2023/06/20 12:01:04;;;;;;;7.28;6.72;;;28.00;99.90;;;;;;5270895;28;20027;-73
2023/06/20 12:03:36;;;;;;;7.15;6.50;;;27.80;99.90;;;;;;5270834;28;20078;-73
2023/06/20 12:06:27;;;;;;;7.60;6.90;;;27.70;99.90;;;;;;5270742;28;20031;-73
2023/06/20 12:09:02;;;;;;;9.27;8.48;;;27.40;99.90;;;;;;5270629;28;20018;-73
2023/06/20 12:11:33;;;;;;;7.32;6.63;;;27.40;99.90;;;;;;5252318;28;20081;-73
2023/06/20 12:14:04;;;;;;;7.20;6.43;;;27.10;99.90;;;;;;5270654;28;20410;-73
2023/06/20 12:16:36;;;;;;;7.45;6.75;;;26.80;99.90;;;;;;5270566;28;20506;-73
2023/06/20 12:19:06;;;;;;;8.50;7.80;;;26.30;99.90;;;;;;5270510;28;20101;-73
2023/06/20 12:21:42;;;;;;;12.00;10.98;;;26.30;99.90;;;;;;5270339;28;20028;-73
2023/06/20 12:24:12;;;;;;;12.68;11.57;;;26.20;99.90;;;;;;5270342;28;20035;-73
2023/06/20 12:26:46;;;;;;;14.25;13.00;;;25.90;99.90;;;;;;5270200;28;20456;-73
2023/06/20 12:29:17;;;;;;;13.18;12.07;;;25.70;99.90;;;;;;5270294;28;20032;-74
2023/06/20 12:31:48;;;;;;;15.02;13.93;;;25.70;99.90;;;;;;5270390;28;20035;-73
2023/06/20 12:34:19;;;;;;;16.25;14.93;;;25.60;99.90;;;;;;5252242;28;20035;-73
2023/06/20 12:36:51;;;;;;;14.82;13.52;;;25.40;99.90;;;;;;5270210;28;20028;-73
2023/06/20 12:39:22;;;;;;;12.20;11.10;;;25.20;99.90;;;;;;5270105;28;20042;-73
2023/06/20 12:41:53;;;;;;;10.02;9.23;;;25.30;99.90;;;;;;5270025;28;20036;-73
2023/06/20 12:44:23;;;;;;;9.30;8.57;;;25.20;99.90;;;;;;5269900;28;20028;-73
2023/06/20 12:46:54;;;;;;;8.82;8.07;;;25.20;99.90;;;;;;5269943;28;20387;-73
2023/06/20 12:49:25;;;;;;;8.15;7.53;;;25.10;99.90;;;;;;5269700;28;20456;-73
2023/06/20 12:51:57;;;;;;;9.73;7.18;;;24.80;99.90;;;;;;5269850;28;20388;-73
2023/06/20 12:54:27;;;;;;;7.40;6.70;;;24.80;99.90;;;;;;5269504;28;20035;-73
2023/06/20 12:56:58;;;;;;;8.20;6.47;;;24.80;99.90;;;;;;5269781;28;20044;-73
2023/06/20 12:59:29;;;;;;;6.85;6.15;;;24.90;99.90;;;;;;5269124;28;20479;-73
2023/06/20 13:02:00;;;;;;;16.58;6.55;;;24.50;99.90;;;;;;5269671;28;20468;-72
2023/06/20 13:04:31;;;;;;;12.10;7.38;;;24.20;99.90;;;;;;5269397;28;20059;-72
2023/06/20 13:07:02;;;;;;;9.48;7.75;;;24.00;99.90;;;;;;5270021;28;20058;-72
2023/06/20 13:09:33;;;;;;;7.95;7.00;;;24.10;99.90;;;;;;5269632;28;20036;-73
2023/06/20 13:12:04;;;;;;;11.35;7.55;;;23.80;99.90;;;;;;5269471;28;20157;-73
2023/06/20 13:14:35;;;;;;;8.98;7.97;;;23.60;99.90;;;;;;5269392;28;20031;-72
2023/06/20 13:17:07;;;;;;;9.93;8.85;;;23.30;99.90;;;;;;5269492;28;20605;-72